Time;durP1;ratioP1;P1;durP2;ratioP2;P2;SDS_P1;SDS_P2;PMS_P1;PMS_P2;Temp;Humidity;BMP_temperature;BMP_pressure;BME280_temperature;BME280_humidity;BME280_pressure;Samples;Min_cycle;Max_cycle;Signal;HPM_P1;HPM_P2
2022/09/24 00:01:39;;;;;;;3.78;2.10;;;;;;;12.17;48.43;99753.81;4492775;31;33683;-62
2022/09/24 00:04:10;;;;;;;2.80;2.10;;;;;;;12.17;48.40;99751.13;4494422;31;33578;-62
2022/09/24 00:06:45;;;;;;;4.50;2.45;;;;;;;12.17;48.60;99751.13;4490830;31;33794;-62
2022/09/24 00:09:15;;;;;;;6.18;2.58;;;;;;;12.23;48.18;99749.75;4495265;31;33679;-62
2022/09/24 00:11:44;;;;;;;3.72;1.85;;;;;;;12.21;48.25;99749.87;4499091;31;32908;-62
2022/09/24 00:14:12;;;;;;;3.58;2.30;;;;;;;12.21;48.30;99746.34;4490380;31;34214;-62
2022/09/24 00:16:41;;;;;;;4.75;2.20;;;;;;;12.17;48.21;99751.13;4487320;31;31867;-61
2022/09/24 00:19:11;;;;;;;3.62;2.30;;;;;;;12.18;48.10;99749.28;4485525;31;32961;-62
2022/09/24 00:21:39;;;;;;;3.58;2.35;;;;;;;12.12;48.41;99743.44;4500496;31;34062;-61
2022/09/24 00:24:10;;;;;;;3.83;2.17;;;;;;;12.19;48.14;99754.50;4496710;31;33098;-62
2022/09/24 00:26:49;;;;;;;5.57;2.70;;;;;;;12.21;47.87;99754.41;4491428;31;33787;-62
2022/09/24 00:29:22;;;;;;;5.15;2.87;;;;;;;12.16;48.16;99756.59;4492502;31;34183;-61
2022/09/24 00:31:51;;;;;;;5.50;2.78;;;;;;;12.16;48.12;99760.13;4496981;31;34585;-62
2022/09/24 00:34:19;;;;;;;3.40;1.80;;;;;;;12.06;48.44;99756.47;4497537;31;33405;-62
2022/09/24 00:36:47;;;;;;;4.45;2.47;;;;;;;12.02;48.37;99752.34;4497046;31;34675;-62
2022/09/24 00:39:15;;;;;;;9.02;2.87;;;;;;;11.99;49.19;99752.59;4486719;31;35177;-62
2022/09/24 00:41:47;;;;;;;4.05;2.30;;;;;;;12.09;48.52;99745.50;4493831;31;33179;-62
2022/09/24 00:44:37;;;;;;;4.22;2.15;;;;;;;12.20;47.96;99752.69;4494682;31;33089;-62
2022/09/24 00:47:10;;;;;;;4.05;2.15;;;;;;;12.31;47.64;99750.00;4483770;31;33671;-62
2022/09/24 00:49:38;;;;;;;6.62;2.87;;;;;;;12.35;47.61;99748.75;4482947;31;33977;-62
2022/09/24 00:52:06;;;;;;;5.78;3.35;;;;;;;12.31;47.59;99740.09;4493884;31;34638;-62
2022/09/24 00:54:34;;;;;;;6.03;3.00;;;;;;;12.29;47.95;99744.72;4484918;31;34230;-62
2022/09/24 00:57:02;;;;;;;3.75;2.45;;;;;;;12.31;47.75;99739.25;4497696;31;33807;-62
2022/09/24 00:59:32;;;;;;;10.02;2.20;;;;;;;12.33;47.71;99740.00;4494183;31;32809;-62
2022/09/24 01:02:00;;;;;;;6.28;2.87;;;;;;;12.38;47.38;99732.41;4486847;31;34673;-61
2022/09/24 01:04:28;;;;;;;5.00;2.60;;;;;;;12.43;47.49;99730.19;4491072;31;33346;-62
2022/09/24 01:06:56;;;;;;;3.80;2.30;;;;;;;12.34;47.47;99726.44;4490356;31;33861;-62
2022/09/24 01:09:26;;;;;;;3.80;2.35;;;;;;;12.32;47.21;99728.38;4494380;31;34082;-62
2022/09/24 01:12:16;;;;;;;5.72;2.35;;;;;;;12.26;47.31;99722.66;4486638;31;35077;-62
2022/09/24 01:14:53;;;;;;;2.80;1.92;;;;;;;12.02;47.94;99721.00;4492770;31;33429;-62
2022/09/24 01:17:43;;;;;;;3.67;2.45;;;;;;;12.06;47.75;99718.94;4488939;31;34053;-61
2022/09/24 01:20:31;;;;;;;4.18;1.90;;;;;;;11.92;48.04;99719.22;4491615;31;34164;-62
2022/09/24 01:23:37;;;;;;;2.67;1.65;;;;;;;11.88;48.20;99722.12;4486783;31;33569;-62
2022/09/24 01:26:35;;;;;;;3.12;1.87;;;;;;;11.78;48.79;99714.91;4495082;31;34006;-62
2022/09/24 01:29:26;;;;;;;3.60;1.62;;;;;;;11.89;48.30;99715.78;4480649;31;33701;-62
2022/09/24 01:32:34;;;;;;;3.65;1.73;;;;;;;11.88;48.19;99718.59;4489042;31;32602;-62
2022/09/24 01:35:12;;;;;;;2.55;1.83;;;;;;;11.86;48.35;99707.12;4459802;31;33606;-62
2022/09/24 01:37:43;;;;;;;3.78;2.08;;;;;;;11.78;48.52;99706.84;4496676;31;33229;-61
2022/09/24 01:40:11;;;;;;;3.33;1.87;;;;;;;11.84;48.23;99707.25;4483795;31;33471;-61
2022/09/24 01:42:41;;;;;;;4.55;2.58;;;;;;;11.86;48.31;99702.63;4493251;31;34117;-62
2022/09/24 01:45:10;;;;;;;4.45;2.17;;;;;;;11.87;47.99;99690.06;4507157;31;33976;-61
2022/09/24 01:47:39;;;;;;;5.93;2.25;;;;;;;11.83;48.25;99700.16;4490832;31;33319;-61
2022/09/24 01:50:12;;;;;;;4.45;2.33;;;;;;;11.85;48.21;99702.75;4488530;31;33533;-62
2022/09/24 01:52:48;;;;;;;4.97;2.25;;;;;;;11.95;47.86;99692.12;4482433;31;33660;-62
2022/09/24 01:55:16;;;;;;;;;;;;;;;11.95;47.94;99692.12;4481756;31;33656;-62
2022/09/24 01:57:47;;;;;;;3.62;2.15;;;;;;;11.97;47.83;99698.22;4482370;31;33158;-62
2022/09/24 02:00:17;;;;;;;4.40;2.20;;;;;;;11.93;47.93;99694.94;4492224;31;33738;-62
2022/09/24 02:02:48;;;;;;;6.30;2.40;;;;;;;11.89;48.08;99702.38;4495267;31;35004;-61
2022/09/24 02:05:25;;;;;;;3.00;1.92;;;;;;;11.94;47.85;99699.34;4490389;31;34932;-62
2022/09/24 02:08:07;;;;;;;3.30;2.22;;;;;;;11.89;48.10;99704.22;4494042;31;34186;-61
2022/09/24 02:10:47;;;;;;;2.40;1.67;;;;;;;11.94;47.91;99699.34;4492254;31;33561;-62
2022/09/24 02:13:14;;;;;;;3.75;2.45;;;;;;;11.92;48.02;99698.59;4483039;31;33851;-61
2022/09/24 02:15:45;;;;;;;4.47;2.60;;;;;;;11.87;48.09;99701.63;4481669;31;33647;-61
2022/09/24 02:18:16;;;;;;;2.12;1.70;;;;;;;11.87;47.84;99696.28;4495265;31;33281;-61
2022/09/24 02:20:44;;;;;;;4.95;2.25;;;;;;;11.87;47.95;99707.00;4491772;31;33732;-62
2022/09/24 02:23:14;;;;;;;3.58;2.15;;;;;;;11.81;48.13;99702.13;4478393;31;33669;-62
2022/09/24 02:25:47;;;;;;;3.37;1.90;;;;;;;11.78;48.02;99702.38;4495748;31;33805;-62
2022/09/24 02:28:17;;;;;;;3.17;2.12;;;;;;;11.83;47.82;99705.53;4493845;31;33063;-62
2022/09/24 02:30:49;;;;;;;3.30;2.15;;;;;;;11.59;49.60;99708.34;4482361;31;33705;-61
2022/09/24 02:36:06;;;;;;;3.03;1.85;;;;;;;11.46;49.28;99707.62;4496438;31;33798;-61
2022/09/24 02:38:33;;;;;;;3.08;1.92;;;;;;;11.50;48.80;99713.59;4486423;31;33476;-61
2022/09/24 02:41:01;;;;;;;2.17;1.52;;;;;;;11.40;49.36;99706.28;4487213;31;33537;-61
2022/09/24 02:43:29;;;;;;;1.75;1.33;;;;;;;11.49;49.19;99701.13;4494319;31;34243;-61
2022/09/24 02:45:56;;;;;;;2.37;1.87;;;;;;;11.54;49.13;99705.16;4486749;31;33902;-61
2022/09/24 02:48:24;;;;;;;2.80;1.90;;;;;;;11.65;48.72;99697.13;4495529;31;34298;-64
2022/09/24 02:50:52;;;;;;;2.42;1.67;;;;;;;11.69;49.11;99702.25;4493695;31;34842;-62
2022/09/24 02:53:20;;;;;;;4.18;2.40;;;;;;;11.83;48.19;99708.19;4486385;31;33694;-62
2022/09/24 02:55:48;;;;;;;2.42;1.52;;;;;;;11.71;48.37;99705.66;4491616;31;33784;-62
2022/09/24 02:58:15;;;;;;;4.50;2.20;;;;;;;11.75;48.10;99696.37;4492936;31;33095;-62
2022/09/24 03:00:43;;;;;;;4.90;2.78;;;;;;;11.66;48.76;99696.16;4492219;31;34217;-62
2022/09/24 03:03:11;;;;;;;2.47;1.75;;;;;;;11.69;48.58;99700.44;4495175;31;33577;-62
2022/09/24 03:05:38;;;;;;;4.57;1.52;;;;;;;11.75;48.59;99704.41;4496220;31;33812;-62
2022/09/24 03:08:06;;;;;;;4.22;2.33;;;;;;;11.76;48.02;99690.06;4491577;31;33517;-63
2022/09/24 03:10:33;;;;;;;2.65;1.62;;;;;;;11.73;47.92;99699.19;4483811;31;33862;-62
2022/09/24 03:13:01;;;;;;;2.42;1.65;;;;;;;11.66;48.29;99693.47;4495505;31;34075;-62
2022/09/24 03:15:29;;;;;;;3.53;2.08;;;;;;;11.68;47.97;99696.03;4493747;31;33218;-62
2022/09/24 03:17:56;;;;;;;4.65;2.35;;;;;;;11.69;48.37;99684.34;4486941;31;33421;-62
2022/09/24 03:20:24;;;;;;;2.47;1.70;;;;;;;11.61;49.28;99671.53;4494889;31;33653;-62
2022/09/24 03:22:51;;;;;;;7.87;2.85;;;;;;;11.76;48.31;99676.66;4491461;31;34763;-62
2022/09/24 03:25:19;;;;;;;4.00;2.17;;;;;;;11.65;48.51;99682.84;4497763;31;34523;-61
2022/09/24 03:27:47;;;;;;;4.12;2.60;;;;;;;11.81;48.03;99677.12;4495529;31;34438;-62
2022/09/24 03:33:01;;;;;;;5.32;1.98;;;;;;;11.85;48.22;99668.75;4488005;31;35141;-62
2022/09/24 03:35:29;;;;;;;3.83;2.45;;;;;;;11.70;48.79;99667.25;4487671;31;33581;-61
2022/09/24 03:37:56;;;;;;;6.60;3.65;;;;;;;11.84;47.88;99675.06;4492104;31;33940;-61
2022/09/24 03:40:24;;;;;;;6.47;2.95;;;;;;;11.80;48.29;99675.41;4493272;31;34953;-62
2022/09/24 03:42:52;;;;;;;5.68;3.20;;;;;;;11.85;48.25;99678.63;4493114;31;33710;-61
2022/09/24 03:45:19;;;;;;;5.57;2.95;;;;;;;11.91;48.28;99664.72;4494297;31;34094;-62
2022/09/24 03:47:47;;;;;;;6.53;2.75;;;;;;;11.88;48.04;99665.81;4492004;31;34129;-61
2022/09/24 03:50:16;;;;;;;6.62;3.03;;;;;;;11.93;48.34;99669.94;4493592;31;34645;-62
2022/09/24 03:52:43;;;;;;;8.05;4.10;;;;;;;11.81;49.74;99658.34;4494413;31;33759;-61
2022/09/24 03:55:10;;;;;;;8.43;3.45;;;;;;;11.71;49.22;99662.75;4493639;31;34852;-62
2022/09/24 03:57:38;;;;;;;12.02;3.45;;;;;;;11.94;47.87;99664.47;4491084;31;32225;-62
2022/09/24 04:00:06;;;;;;;7.80;3.58;;;;;;;11.96;47.71;99664.34;4493561;31;34986;-61
2022/09/24 04:02:35;;;;;;;9.07;4.32;;;;;;;11.96;47.66;99667.00;4494913;31;33921;-62
2022/09/24 04:05:02;;;;;;;9.05;3.42;;;;;;;11.97;47.89;99657.97;4488755;31;33518;-62
2022/09/24 04:07:30;;;;;;;8.45;3.30;;;;;;;11.91;48.11;99658.47;4489383;31;34257;-62
2022/09/24 04:09:58;;;;;;;3.62;2.22;;;;;;;11.94;47.72;99658.22;4490800;31;32493;-61
2022/09/24 04:12:26;;;;;;;6.07;3.25;;;;;;;11.89;48.12;99656.78;4491050;31;33551;-62
2022/09/24 04:14:53;;;;;;;6.78;2.67;;;;;;;11.87;47.82;99663.25;4492459;31;32452;-62
2022/09/24 04:17:21;;;;;;;5.45;2.67;;;;;;;11.94;47.56;99658.22;4487719;31;34405;-62
2022/09/24 04:19:49;;;;;;;4.95;2.00;;;;;;;11.87;48.08;99656.03;4493413;31;34614;-61
2022/09/24 04:22:17;;;;;;;5.45;2.58;;;;;;;11.93;47.67;99657.37;4483284;31;34997;-62
2022/09/24 04:24:44;;;;;;;3.67;2.20;;;;;;;11.79;48.41;99658.47;4493250;31;33478;-61
2022/09/24 04:27:12;;;;;;;7.78;3.35;;;;;;;11.91;47.44;99664.72;4489775;31;33444;-61
2022/09/24 04:29:39;;;;;;;4.30;1.77;;;;;;;11.84;47.62;99658.97;4486533;31;33844;-61
2022/09/24 04:32:07;;;;;;;7.50;2.12;;;;;;;11.75;48.19;99666.88;4492252;31;33905;-62
2022/09/24 04:34:35;;;;;;;4.80;1.95;;;;;;;11.75;47.60;99662.41;4484735;31;34635;-62
2022/09/24 04:37:02;;;;;;;4.97;2.45;;;;;;;11.74;47.88;99663.34;4482700;31;34575;-62
2022/09/24 04:39:30;;;;;;;8.10;3.05;;;;;;;11.70;47.95;99669.09;4494096;31;34021;-62
2022/09/24 04:41:58;;;;;;;5.65;3.33;;;;;;;11.59;48.86;99656.56;4486977;31;33119;-62
2022/09/24 04:44:26;;;;;;;2.72;1.65;;;;;;;11.51;50.62;99653.62;4492109;31;33880;-62
2022/09/24 04:46:58;;;;;;;4.32;2.17;;;;;;;11.67;50.93;99670.19;4494831;31;33279;-62
2022/09/24 04:49:26;;;;;;;3.12;1.92;;;;;;;11.82;49.35;99663.59;4488481;31;33600;-61
2022/09/24 04:51:56;;;;;;;4.95;2.53;;;;;;;11.77;50.20;99673.84;4494022;31;35633;-62
2022/09/24 04:54:24;;;;;;;4.78;2.70;;;;;;;11.97;48.47;99669.56;4491801;31;33883;-62
2022/09/24 04:56:51;;;;;;;3.80;2.03;;;;;;;11.83;49.37;99669.81;4491492;31;33383;-62
2022/09/24 04:59:21;;;;;;;5.72;3.15;;;;;;;11.96;48.20;99672.38;4493158;31;33921;-62
2022/09/24 05:01:49;;;;;;;5.85;2.72;;;;;;;11.91;48.91;99670.09;4492876;31;35258;-63
2022/09/24 05:04:17;;;;;;;5.95;2.17;;;;;;;12.03;49.21;99669.06;4493326;31;33695;-63
2022/09/24 05:06:45;;;;;;;3.65;2.22;;;;;;;12.15;48.98;99664.53;4483665;31;33138;-63
2022/09/24 05:09:12;;;;;;;4.22;2.28;;;;;;;12.00;50.34;99657.72;4491426;31;33965;-63
2022/09/24 05:11:40;;;;;;;5.03;2.45;;;;;;;12.17;50.00;99662.56;4488663;31;32996;-63
2022/09/24 05:14:08;;;;;;;4.18;2.05;;;;;;;12.03;51.25;99652.97;4493933;31;32003;-63
2022/09/24 05:16:35;;;;;;;4.53;2.40;;;;;;;12.05;51.48;99659.06;4494359;31;32123;-63
2022/09/24 05:19:03;;;;;;;5.07;3.17;;;;;;;12.37;49.92;99658.22;4485926;31;33585;-63
2022/09/24 05:21:31;;;;;;;4.95;2.92;;;;;;;12.50;48.60;99660.75;4490588;31;32820;-63
2022/09/24 05:23:59;;;;;;;5.62;3.03;;;;;;;12.47;48.48;99666.37;4489514;31;33683;-63
2022/09/24 05:29:12;;;;;;;5.25;2.78;;;;;;;12.43;48.57;99664.94;4486830;31;33834;-62
2022/09/24 05:31:40;;;;;;;4.72;2.35;;;;;;;12.46;48.77;99653.94;4493342;31;34788;-62
2022/09/24 05:34:07;;;;;;;5.85;3.95;;;;;;;12.20;51.15;99656.06;4491559;31;32483;-63
2022/09/24 05:36:35;;;;;;;7.57;3.50;;;;;;;12.56;49.29;99657.53;4500925;31;34398;-63
2022/09/24 05:39:03;;;;;;;6.05;3.60;;;;;;;12.71;48.93;99656.25;4495309;31;34656;-63
2022/09/24 05:41:30;;;;;;;7.35;3.53;;;;;;;12.74;49.33;99649.75;4500174;31;35232;-61
2022/09/24 05:43:58;;;;;;;6.40;4.03;;;;;;;12.46;51.48;99654.78;4493558;31;32321;-62
2022/09/24 05:46:26;;;;;;;10.45;5.15;;;;;;;12.76;51.53;99662.06;4492335;31;34487;-62
2022/09/24 05:48:54;;;;;;;8.63;3.70;;;;;;;12.78;51.59;99660.09;4493072;31;33335;-62
2022/09/24 05:51:22;;;;;;;5.62;3.55;;;;;;;12.93;51.41;99665.13;4499185;31;34070;-63
2022/09/24 05:53:49;;;;;;;7.28;4.03;;;;;;;12.97;51.14;99666.56;4498275;31;33851;-62
2022/09/24 05:56:17;;;;;;;10.13;3.85;;;;;;;13.02;50.70;99667.03;4498626;31;33340;-62
2022/09/24 05:58:48;;;;;;;8.15;3.78;;;;;;;13.24;50.33;99666.91;4496402;31;34672;-62
2022/09/24 06:01:15;;;;;;;10.38;4.65;;;;;;;13.28;51.22;99673.72;4498388;31;34044;-63
2022/09/24 06:03:43;;;;;;;8.63;4.95;;;;;;;13.45;51.18;99677.62;4497320;31;33688;-62
2022/09/24 06:06:11;;;;;;;11.23;6.15;;;;;;;13.55;50.92;99672.31;4489022;31;33390;-62
2022/09/24 06:08:38;;;;;;;10.43;6.47;;;;;;;13.59;51.21;99679.09;4492340;31;34020;-62
2022/09/24 06:11:08;;;;;;;9.23;6.00;;;;;;;13.46;51.81;99678.47;4496683;31;35088;-63
2022/09/24 06:13:35;;;;;;;14.73;8.80;;;;;;;13.47;50.52;99674.78;4494413;31;34904;-62
2022/09/24 06:16:06;;;;;;;12.57;8.52;;;;;;;13.67;50.34;99675.72;4495820;31;33237;-62
2022/09/24 06:18:39;;;;;;;14.15;7.87;;;;;;;13.40;50.91;99670.94;4494194;31;33461;-61
2022/09/24 06:21:10;;;;;;;12.85;9.07;;;;;;;13.63;51.65;99679.69;4490077;31;34037;-62
2022/09/24 06:23:38;;;;;;;12.90;8.02;;;;;;;13.86;50.83;99674.94;4479070;31;34822;-63
2022/09/24 06:26:07;;;;;;;11.12;7.78;;;;;;;13.99;50.96;99679.06;4496022;31;33457;-62
2022/09/24 06:28:35;;;;;;;10.73;7.57;;;;;;;14.00;49.32;99679.94;4493982;31;35040;-61
2022/09/24 06:31:04;;;;;;;10.23;7.62;;;;;;;14.18;50.16;99680.94;4494127;31;33841;-62
2022/09/24 06:33:31;;;;;;;12.65;8.65;;;;;;;13.71;50.72;99683.41;4489743;31;33700;-62
2022/09/24 06:36:00;;;;;;;12.25;8.38;;;;;;;14.17;49.97;99691.88;4483557;31;32485;-61
2022/09/24 06:38:28;;;;;;;14.90;8.60;;;;;;;14.11;50.59;99693.25;4494495;31;32501;-62
2022/09/24 06:41:00;;;;;;;11.80;8.75;;;;;;;14.09;50.36;99687.19;4497011;31;34906;-62
2022/09/24 06:43:28;;;;;;;13.62;9.50;;;;;;;13.75;51.49;99690.19;4494558;31;34611;-62
2022/09/24 06:45:57;;;;;;;13.90;8.65;;;;;;;13.90;51.49;99679.03;4488969;31;33980;-62
2022/09/24 06:48:26;;;;;;;13.88;8.82;;;;;;;13.79;51.68;99674.63;4491984;31;34033;-61
2022/09/24 06:50:55;;;;;;;11.75;8.50;;;;;;;13.57;52.53;99683.75;4492645;31;33017;-62
2022/09/24 06:53:23;;;;;;;14.27;10.77;;;;;;;13.77;51.66;99683.81;4491243;31;33586;-61
2022/09/24 06:55:50;;;;;;;16.08;10.00;;;;;;;13.69;52.96;99685.34;4496668;31;32288;-61
2022/09/24 06:58:19;;;;;;;16.00;11.48;;;;;;;13.92;52.57;99686.00;4494676;31;35520;-61
2022/09/24 07:00:52;;;;;;;14.68;11.18;;;;;;;13.93;52.46;99686.84;4495776;31;32178;-61
2022/09/24 07:03:21;;;;;;;16.02;11.23;;;;;;;13.95;51.80;99684.88;4499257;31;33654;-61
2022/09/24 07:05:48;;;;;;;14.68;9.23;;;;;;;13.39;54.23;99691.62;4494796;31;33486;-62
2022/09/24 07:08:16;;;;;;;17.98;11.35;;;;;;;13.91;52.86;99695.06;4494125;31;34803;-62
2022/09/24 07:10:46;;;;;;;15.55;11.40;;;;;;;14.02;52.48;99695.94;4485502;31;33619;-62
2022/09/24 07:13:14;;;;;;;14.60;11.25;;;;;;;14.13;52.32;99702.06;4499515;31;35256;-62
2022/09/24 07:15:42;;;;;;;17.20;13.18;;;;;;;14.37;52.58;99707.06;4496822;31;32433;-63
2022/09/24 07:18:11;;;;;;;20.12;12.30;;;;;;;14.44;52.17;99707.34;4490238;31;33955;-61
2022/09/24 07:20:39;;;;;;;19.92;13.68;;;;;;;14.40;52.23;99703.22;4492139;31;35227;-62
2022/09/24 07:23:08;;;;;;;15.55;12.32;;;;;;;14.11;53.36;99709.41;4491477;31;32472;-62
2022/09/24 07:25:38;;;;;;;13.07;9.00;;;;;;;14.19;53.18;99717.66;4490748;31;34594;-62
2022/09/24 07:28:08;;;;;;;15.30;11.75;;;;;;;14.60;52.33;99715.75;4492945;31;34700;-62
2022/09/24 07:30:37;;;;;;;17.90;13.40;;;;;;;14.65;52.41;99708.09;4493440;31;33754;-62
2022/09/24 07:33:06;;;;;;;16.42;12.27;;;;;;;14.68;53.11;99709.66;4491674;31;34064;-62
2022/09/24 07:35:36;;;;;;;20.27;13.75;;;;;;;14.91;52.04;99708.38;4495618;31;33091;-61
2022/09/24 07:38:06;;;;;;;18.35;13.80;;;;;;;14.95;52.56;99719.72;4492454;31;33548;-62
2022/09/24 07:40:34;;;;;;;19.20;13.82;;;;;;;14.99;52.30;99721.16;4493632;31;33953;-62
2022/09/24 07:43:01;;;;;;;17.70;14.40;;;;;;;15.13;51.76;99720.69;4491424;31;34003;-62
2022/09/24 07:45:30;;;;;;;19.80;14.23;;;;;;;14.90;52.69;99719.31;4484994;31;33422;-62
2022/09/24 07:47:59;;;;;;;18.15;13.23;;;;;;;15.13;52.02;99715.28;4489455;31;33650;-62
2022/09/24 07:50:28;;;;;;;17.87;13.57;;;;;;;14.63;53.01;99726.25;4491281;31;33950;-61
2022/09/24 07:52:56;;;;;;;17.98;13.70;;;;;;;14.82;53.11;99724.53;4494602;31;33760;-61
2022/09/24 07:55:24;;;;;;;18.25;13.57;;;;;;;14.87;53.15;99724.97;4497192;31;33488;-62
2022/09/24 07:57:53;;;;;;;22.30;14.25;;;;;;;15.01;52.91;99724.53;4486940;31;33735;-62
2022/09/24 08:00:22;;;;;;;19.40;14.93;;;;;;;15.11;52.95;99719.13;4493614;31;34969;-62
2022/09/24 08:02:52;;;;;;;18.55;14.02;;;;;;;15.17;53.25;99723.94;4493414;31;32881;-61
2022/09/24 08:05:20;;;;;;;21.58;14.65;;;;;;;15.56;52.36;99715.75;4496225;31;33633;-61
2022/09/24 08:07:54;;;;;;;18.33;14.15;;;;;;;15.59;52.19;99715.44;4492616;31;32564;-62
2022/09/24 08:10:22;;;;;;;18.62;12.02;;;;;;;15.70;52.00;99709.06;4497105;31;35204;-62
2022/09/24 08:12:50;;;;;;;22.58;14.35;;;;;;;16.04;48.99;99712.84;4492825;31;33735;-63
2022/09/24 08:15:18;;;;;;;19.30;13.45;;;;;;;16.35;46.11;99706.31;4497772;31;34127;-62
2022/09/24 08:17:45;;;;;;;21.33;13.65;;;;;;;16.05;47.17;99703.78;4489550;31;33591;-61
2022/09/24 08:20:13;;;;;;;17.50;12.55;;;;;;;16.00;46.80;99699.81;4499315;31;33730;-62
2022/09/24 08:22:40;;;;;;;18.87;12.35;;;;;;;16.23;47.25;99716.47;4495033;31;34188;-62
2022/09/24 08:25:08;;;;;;;17.90;12.55;;;;;;;16.18;46.55;99707.94;4489021;31;33479;-62
2022/09/24 08:27:36;;;;;;;18.75;12.75;;;;;;;16.40;45.93;99707.50;4488403;31;32323;-62
2022/09/24 08:30:05;;;;;;;16.10;11.05;;;;;;;16.58;45.71;99706.69;4498268;31;35681;-62
2022/09/24 08:32:32;;;;;;;17.33;11.38;;;;;;;16.56;44.77;99689.78;4490257;31;34685;-62
2022/09/24 08:35:00;;;;;;;18.52;11.38;;;;;;;16.50;46.49;99685.84;4498065;31;33491;-63
2022/09/24 08:37:28;;;;;;;16.92;10.93;;;;;;;16.59;45.75;99686.78;4496523;31;35052;-61
2022/09/24 08:39:56;;;;;;;16.23;11.38;;;;;;;16.36;45.30;99683.69;4493084;31;34825;-63
2022/09/24 08:42:43;;;;;;;15.23;9.38;;;;;;;16.80;45.40;99686.50;4497317;31;33935;-62
2022/09/24 08:48:09;;;;;;;13.65;9.10;;;;;;;17.32;43.95;99690.09;4494292;31;34105;-62
2022/09/24 08:50:45;;;;;;;13.40;8.90;;;;;;;17.36;44.46;99680.63;4482209;31;33709;-63
2022/09/24 08:53:23;;;;;;;16.08;11.07;;;;;;;17.58;44.81;99678.41;4488028;31;32985;-62
2022/09/24 08:55:58;;;;;;;12.65;8.93;;;;;;;17.74;44.36;99677.62;4489136;31;34861;-62
2022/09/24 08:58:47;;;;;;;14.32;9.00;;;;;;;17.15;44.17;99680.19;4497178;31;34990;-62
2022/09/24 09:01:37;;;;;;;11.43;9.02;;;;;;;17.18;44.34;99690.69;4490067;31;33622;-62
2022/09/24 09:04:19;;;;;;;14.85;9.60;;;;;;;17.85;43.41;99691.75;4484038;31;33657;-62
2022/09/24 09:06:57;;;;;;;44.00;27.02;;;;;;;18.04;43.32;99687.94;4486321;31;32211;-62
2022/09/24 09:09:32;;;;;;;24.02;15.88;;;;;;;18.01;42.86;99666.59;4482830;31;33372;-63
2022/09/24 09:12:04;;;;;;;12.98;9.25;;;;;;;17.90;44.26;99678.56;4496912;31;32911;-62
2022/09/24 09:14:42;;;;;;;12.02;9.45;;;;;;;18.01;43.89;99669.31;4487597;31;33766;-63
2022/09/24 09:17:19;;;;;;;15.82;9.63;;;;;;;17.75;44.42;99668.47;4482882;31;33062;-62
2022/09/24 09:19:54;;;;;;;15.10;10.38;;;;;;;17.86;43.64;99665.53;4485666;31;32756;-62
2022/09/24 09:22:28;;;;;;;13.45;8.80;;;;;;;17.83;43.86;99664.00;4491925;31;34957;-61
2022/09/24 09:25:02;;;;;;;12.57;9.23;;;;;;;18.04;44.19;99662.69;4494872;31;33913;-62
2022/09/24 09:27:31;;;;;;;13.77;9.32;;;;;;;18.00;44.86;99659.47;4490197;31;33587;-62
2022/09/24 09:30:03;;;;;;;14.27;8.80;;;;;;;18.36;44.26;99653.78;4487396;31;33784;-63
2022/09/24 09:32:42;;;;;;;15.20;9.43;;;;;;;18.24;43.17;99661.41;4497601;31;32460;-62
2022/09/24 09:35:19;;;;;;;12.85;9.93;;;;;;;18.44;43.87;99659.25;4494934;31;33587;-62
2022/09/24 09:37:58;;;;;;;11.85;7.95;;;;;;;18.68;43.43;99650.28;4494717;31;33173;-62
2022/09/24 09:40:28;;;;;;;13.15;8.40;;;;;;;18.49;42.76;99651.47;4485526;31;35022;-63
2022/09/24 09:43:10;;;;;;;11.07;8.07;;;;;;;18.30;43.11;99651.78;4490274;31;34948;-62
2022/09/24 09:46:02;;;;;;;11.02;7.05;;;;;;;18.09;43.24;99652.22;4492058;31;35042;-62
2022/09/24 09:48:47;;;;;;;10.52;7.20;;;;;;;18.14;42.95;99645.31;4496713;31;33718;-63
2022/09/24 09:51:19;;;;;;;9.70;6.82;;;;;;;18.43;42.70;99641.31;4492880;31;34979;-62
2022/09/24 09:54:00;;;;;;;13.48;8.23;;;;;;;18.47;43.58;99644.53;4497951;31;34238;-62
2022/09/24 09:56:42;;;;;;;10.43;7.40;;;;;;;18.19;44.71;99649.38;4494302;31;34934;-62
2022/09/24 09:59:10;;;;;;;11.32;7.00;;;;;;;18.37;43.80;99648.22;4498145;31;33067;-61
2022/09/24 10:01:41;;;;;;;9.82;6.22;;;;;;;18.55;44.06;99655.34;4492905;31;34611;-63
2022/09/24 10:04:34;;;;;;;9.85;5.97;;;;;;;17.74;44.44;99651.41;4493705;31;35148;-62
2022/09/24 10:07:04;;;;;;;13.55;7.43;;;;;;;17.69;45.02;99637.53;4497244;31;34930;-62
2022/09/24 10:09:32;;;;;;;12.68;7.45;;;;;;;18.11;45.27;99637.53;4489813;31;32092;-62
2022/09/24 10:12:17;;;;;;;9.70;6.62;;;;;;;18.26;44.36;99642.28;4491821;31;34922;-62
2022/09/24 10:14:59;;;;;;;9.40;6.70;;;;;;;18.39;44.65;99640.78;4486914;31;33984;-62
2022/09/24 10:17:37;;;;;;;8.88;5.62;;;;;;;18.61;44.05;99628.41;4493685;31;33763;-63
2022/09/24 10:20:16;;;;;;;10.38;5.43;;;;;;;18.80;43.51;99624.53;4493391;31;33549;-63
2022/09/24 10:22:50;;;;;;;13.38;5.93;;;;;;;18.72;44.17;99623.69;4490024;31;33851;-63
2022/09/24 10:25:25;;;;;;;10.75;5.40;;;;;;;18.80;44.04;99621.84;4488519;31;34067;-63
2022/09/24 10:30:32;;;;;;;10.15;5.82;;;;;;;18.53;43.04;99616.75;4484899;31;33607;-63
2022/09/24 10:30:54;;;;;;;8.23;4.50;;;;;;;18.82;43.04;99618.97;4483081;31;31945;-64
2022/09/24 10:33:22;;;;;;;6.70;4.03;;;;;;;19.11;42.56;99617.56;4491657;31;34671;-63
2022/09/24 10:36:02;;;;;;;6.00;3.60;;;;;;;18.68;42.43;99614.19;4492620;31;34884;-62
2022/09/24 10:38:30;;;;;;;6.32;3.58;;;;;;;18.82;41.08;99611.69;4487080;31;32451;-63
2022/09/24 10:40:58;;;;;;;7.40;4.18;;;;;;;18.69;40.80;99603.19;4492239;31;34304;-62
2022/09/24 10:43:26;;;;;;;6.43;3.65;;;;;;;18.75;41.17;99602.53;4487471;31;35400;-62
2022/09/24 10:46:27;;;;;;;5.30;2.83;;;;;;;19.07;39.46;99601.66;4493047;31;35249;-63
2022/09/24 10:49:23;;;;;;;6.30;3.37;;;;;;;19.27;38.99;99607.53;4485786;31;34234;-62
2022/09/24 10:51:57;;;;;;;8.32;4.10;;;;;;;19.31;39.33;99608.84;4491819;31;32134;-63
2022/09/24 10:54:32;;;;;;;7.55;3.70;;;;;;;19.27;38.23;99598.53;4497222;31;32967;-62
2022/09/24 10:57:09;;;;;;;8.45;3.65;;;;;;;19.42;38.51;99604.94;4485964;31;34177;-63
2022/09/24 10:59:50;;;;;;;6.35;3.70;;;;;;;19.39;38.90;99607.13;4489175;31;33648;-63
2022/09/24 11:02:45;;;;;;;7.62;3.55;;;;;;;19.37;38.65;99604.59;4498037;31;33291;-63
2022/09/24 11:05:21;;;;;;;7.12;3.40;;;;;;;19.10;38.88;99608.59;4496748;31;34970;-64
2022/09/24 11:08:00;;;;;;;7.95;3.45;;;;;;;18.73;38.73;99607.28;4496942;31;35792;-63
2022/09/24 11:10:43;;;;;;;6.87;3.50;;;;;;;19.11;37.66;99598.59;4489326;31;33297;-63
2022/09/24 11:13:43;;;;;;;13.00;4.35;;;;;;;19.54;37.07;99589.09;4488011;31;33231;-62
2022/09/24 11:16:37;;;;;;;9.90;3.95;;;;;;;19.00;38.60;99587.06;4484118;31;32518;-63
2022/09/24 11:19:17;;;;;;;6.45;3.47;;;;;;;19.41;38.15;99592.38;4486735;31;34305;-62
2022/09/24 11:22:02;;;;;;;9.68;4.90;;;;;;;19.41;38.43;99589.66;4495968;31;34072;-62
2022/09/24 11:24:58;;;;;;;9.25;4.60;;;;;;;19.33;38.65;99586.16;4490938;31;34558;-62
2022/09/24 11:27:52;;;;;;;7.78;4.70;;;;;;;19.61;37.63;99578.38;4497023;31;33855;-62
2022/09/24 11:30:23;;;;;;;79.85;16.70;;;;;;;19.85;36.99;99567.44;4482217;31;33374;-62
2022/09/24 11:33:07;;;;;;;12.70;4.53;;;;;;;19.76;37.89;99572.06;4480288;31;33808;-62
2022/09/24 11:35:56;;;;;;;13.73;6.05;;;;;;;19.64;36.73;99578.91;4486883;31;34629;-62
2022/09/24 11:38:51;;;;;;;13.57;3.67;;;;;;;19.31;37.98;99570.88;4486379;31;32481;-63
2022/09/24 11:41:39;;;;;;;50.35;11.68;;;;;;;18.98;38.32;99562.00;4487810;31;35000;-64
2022/09/24 11:44:17;;;;;;;9.48;3.33;;;;;;;19.10;38.71;99562.47;4492586;31;35018;-63
2022/09/24 11:46:50;;;;;;;5.07;2.60;;;;;;;19.50;37.53;99564.19;4485371;31;31411;-63
2022/09/24 11:49:27;;;;;;;5.00;2.75;;;;;;;19.74;37.69;99567.81;4491016;31;35535;-63
2022/09/24 11:52:14;;;;;;;7.72;2.78;;;;;;;19.64;36.99;99562.62;4482892;31;34903;-63
2022/09/24 11:54:59;;;;;;;4.82;2.65;;;;;;;19.29;37.78;99570.22;4491110;31;35053;-63
2022/09/24 11:57:29;;;;;;;7.72;2.80;;;;;;;19.83;37.34;99553.16;4494199;31;33281;-63
2022/09/24 12:00:12;;;;;;;6.22;2.58;;;;;;;19.63;37.99;99558.19;4486566;31;33394;-63
2022/09/24 12:02:45;;;;;;;5.20;2.97;;;;;;;19.81;37.39;99557.09;4482965;31;32661;-62
2022/09/24 12:05:34;;;;;;;6.57;3.53;;;;;;;19.96;37.16;99545.28;4490870;31;34118;-62